Algonquin Island, Ontario

6:16 PM EST on January 23, 2018 (GMT -0500)
Toronto Windsurfing Club, 2 Regatta Road | | Change Station

Elev 262 ft 43.64 °N, 79.34 °W | Updated 1 second ago

Light Rain
Light Rain
37.4 °F
Feels Like 31 °F
N
9.0
Wind Variable Wind from West
Gusts 18.0 mph

Today
High -- | Low -- °F
--% Chance of Precip.
Yesterday
High -- | Low -- °F
Precip. -- in
Pressure 29.58 in
Visibility 7.0 miles
Clouds Mostly Cloudy 1700 ft
Overcast 2400 ft
Windchill 31 °F
Dew Point 35 °F
Humidity 91%
Rainfall 0.00 in
Snow Depth Not available.
7:42 AM 5:16 PM
Waxing Crescent, 40% visible
METAR CYTZ 232300Z AUTO 25016KT 7SM -RA BKN017 OVC024 03/01 A2956 RMK SLP015
Pressure 29.58 in
Visibility 7.0 miles
Clouds Mostly Cloudy 1700 ft
Overcast 2400 ft
Windchill 31 °F
Dew Point 35 °F
Humidity 91%
Rainfall 0.00 in
Snow Depth Not available.
7:42 AM 5:16 PM
Waxing Crescent, 40% visible
METAR CYTZ 232300Z AUTO 25016KT 7SM -RA BKN017 OVC024 03/01 A2956 RMK SLP015

Get Severe Weather Alerts

Thanks for signing up!

Be on the lookout for a verification email in your inbox.

You'll start receiving the daily forecast at 6 AM.

×

10-Day Weather Forecast

Almanac

Astronomy

Jan. 23, 2018 Rise Set
Actual Time
Civil Twilight
Nautical Twilight
Astronomical Twilight
Moon
Length of Visible Light
Length of Day
Tomorrow will be .
, % of the Moon is Illuminated

Today's Extremes

Country Highs Country Lows

Community

WunderPhotos

Category 6

Welcome to Category 6. This is the collective home for Weather Underground's featured writeups by Dr. Jeff Masters (right), Bob Henson (left), Chris Burt, and other regular contributors.

Nearby

Air Quality

  Air Quality AQ Index Pollutant
Not available.

Snow Depth

Station Depth Elevation

Earthquake Activity

City Distance Mag. Time & Date
Minimum magnitude displayed is 2.5.

Coastal Water Temperatures

Place Temperature

Stations

Nearby Weather Stations

Station Location Temp. Windchill Dew Point Humidity Wind Precip. Elev Updated Type
                   

Watches & Warnings

There are currently no watches in effect.